Aeroporto :
LOGIN :

Iscrizione | Disclaimer

   EN    FR    IT 

 










Sommario :    VFR   VFR Marginale   IFR   IFR Intensivo   IFR Molto Intensivo
Visibilità : 
Base nubi : 
>= 8 km
>= 3000ft
5 / 8 km
1000 / 3000 ft
1500m / 5 km
500 / 1000 ft
800 / 1500m
200 / 500 ft
< 800m
< 200 ft
Simboli :   Temporali  Nebbia  Neve Forte  Precipitazioni Forti  Vento > 20 kt
SIGMETs :   Varie  Temporali  Ghiacco  Turbolenza  Onda orograficha  Ceneri Vulcaniche






- Altitudine del aeroporto : 405 ft
- Codice IATA : ODH


EGVO - RAF Odiham

ULTIMO METAR :
  • 271550Z AUTO 24012KT 9999 FEW033/// OVC051/// 15/07 Q1015

METARs OBSOLETI :
  • 271520Z AUTO 23016KT 9999 FEW055/// SCT068/// 15/06 Q1015
  • 271450Z AUTO 23017KT 9999 SCT070/// 15/07 Q1015
  • 271420Z AUTO 24015KT 9999 FEW029/// SCT079/// 14/07 Q1015
  • 271350Z AUTO 27014KT 9999 // FEW020/// SCT032/// 14/09 Q1015
  • 271320Z AUTO 22006KT 9999 // OVC038/// 14/09 Q1015
  • 271250Z AUTO 21006KT 9999 RA OVC038/// 12/10 Q1015
  • 271220Z AUTO 25010KT 9999 RA OVC035/// 13/08 Q1015
  • 271150Z AUTO 29008KT 9999 RA OVC034/// 13/08 Q1015
  • 271120Z AUTO 23009KT 9999 OVC036/// 16/07 Q1015

Previsioni scadute.



MetMap, La meteo Aeronautica in un colpo d'occhio ! - Copyright ORBIFLY Dicembre 2007 - Disclaimer

ORBIFLY MET'MAP TEAM :

Programmazione e sviluppo : Alexandra Zaïnal
Concezione : Baudouin d'Aumeries
Supporto tecnico e logistico : Manuel Goepfert
Aiuto : Marc-Olivier Méhu
Aiuto per la traduzione : Arnaldo La Scala




FONTI E CREDITI :

   NOAA